sensor_id;sensor_type;location;lat;lon;timestamp;P1;durP1;ratioP1;P2;durP2;ratioP2
73382;SDS011;61600;48.126;11.542;2023-02-28T00:01:09;4.45;;;2.38;;
73382;SDS011;61600;48.126;11.542;2023-02-28T00:03:35;5.07;;;1.90;;
73382;SDS011;61600;48.126;11.542;2023-02-28T00:06:01;3.97;;;1.60;;
73382;SDS011;61600;48.126;11.542;2023-02-28T00:08:30;4.85;;;2.50;;
73382;SDS011;61600;48.126;11.542;2023-02-28T00:11:00;7.60;;;2.60;;
73382;SDS011;61600;48.126;11.542;2023-02-28T00:13:27;4.07;;;2.10;;
73382;SDS011;61600;48.126;11.542;2023-02-28T00:16:04;5.07;;;2.00;;
73382;SDS011;61600;48.126;11.542;2023-02-28T00:18:31;7.00;;;2.53;;
73382;SDS011;61600;48.126;11.542;2023-02-28T00:20:58;5.13;;;2.22;;
73382;SDS011;61600;48.126;11.542;2023-02-28T00:23:24;4.85;;;2.45;;
73382;SDS011;61600;48.126;11.542;2023-02-28T00:25:51;3.95;;;2.08;;
73382;SDS011;61600;48.126;11.542;2023-02-28T00:28:17;4.70;;;2.60;;
73382;SDS011;61600;48.126;11.542;2023-02-28T00:30:43;5.97;;;1.63;;
73382;SDS011;61600;48.126;11.542;2023-02-28T00:33:09;3.67;;;1.92;;
73382;SDS011;61600;48.126;11.542;2023-02-28T00:35:35;5.13;;;2.00;;
73382;SDS011;61600;48.126;11.542;2023-02-28T00:38:01;5.28;;;2.30;;
73382;SDS011;61600;48.126;11.542;2023-02-28T00:40:27;4.10;;;2.10;;
73382;SDS011;61600;48.126;11.542;2023-02-28T00:42:53;6.90;;;2.30;;
73382;SDS011;61600;48.126;11.542;2023-02-28T00:45:19;5.38;;;2.17;;
73382;SDS011;61600;48.126;11.542;2023-02-28T00:47:44;4.70;;;2.38;;
73382;SDS011;61600;48.126;11.542;2023-02-28T00:50:12;3.80;;;1.98;;
73382;SDS011;61600;48.126;11.542;2023-02-28T00:52:38;5.22;;;2.17;;
73382;SDS011;61600;48.126;11.542;2023-02-28T00:55:04;5.50;;;2.03;;
73382;SDS011;61600;48.126;11.542;2023-02-28T00:57:30;6.05;;;2.28;;
73382;SDS011;61600;48.126;11.542;2023-02-28T00:59:55;7.13;;;2.30;;
73382;SDS011;61600;48.126;11.542;2023-02-28T01:02:21;4.47;;;2.25;;
73382;SDS011;61600;48.126;11.542;2023-02-28T01:04:48;6.10;;;2.40;;
73382;SDS011;61600;48.126;11.542;2023-02-28T01:07:13;6.47;;;2.40;;
73382;SDS011;61600;48.126;11.542;2023-02-28T01:09:40;5.50;;;2.45;;
73382;SDS011;61600;48.126;11.542;2023-02-28T01:12:06;5.00;;;2.38;;
73382;SDS011;61600;48.126;11.542;2023-02-28T01:14:33;6.72;;;2.20;;
73382;SDS011;61600;48.126;11.542;2023-02-28T01:17:00;4.57;;;2.08;;
73382;SDS011;61600;48.126;11.542;2023-02-28T01:19:26;5.35;;;2.42;;
73382;SDS011;61600;48.126;11.542;2023-02-28T01:21:52;4.85;;;2.08;;
73382;SDS011;61600;48.126;11.542;2023-02-28T01:24:18;3.85;;;2.15;;
73382;SDS011;61600;48.126;11.542;2023-02-28T01:26:44;5.80;;;2.03;;
73382;SDS011;61600;48.126;11.542;2023-02-28T01:29:10;5.30;;;2.38;;
73382;SDS011;61600;48.126;11.542;2023-02-28T01:31:36;5.80;;;2.30;;
73382;SDS011;61600;48.126;11.542;2023-02-28T01:34:02;5.25;;;2.38;;
73382;SDS011;61600;48.126;11.542;2023-02-28T01:36:28;7.68;;;2.50;;
73382;SDS011;61600;48.126;11.542;2023-02-28T01:38:54;4.72;;;1.98;;
73382;SDS011;61600;48.126;11.542;2023-02-28T01:41:21;6.05;;;2.63;;
73382;SDS011;61600;48.126;11.542;2023-02-28T01:46:14;6.20;;;2.70;;
73382;SDS011;61600;48.126;11.542;2023-02-28T01:48:45;7.25;;;2.97;;
73382;SDS011;61600;48.126;11.542;2023-02-28T01:51:26;6.30;;;2.55;;
73382;SDS011;61600;48.126;11.542;2023-02-28T01:53:58;4.82;;;2.42;;
73382;SDS011;61600;48.126;11.542;2023-02-28T01:56:29;4.95;;;2.65;;
73382;SDS011;61600;48.126;11.542;2023-02-28T01:58:58;8.68;;;2.53;;
73382;SDS011;61600;48.126;11.542;2023-02-28T02:01:25;8.43;;;2.42;;
73382;SDS011;61600;48.126;11.542;2023-02-28T02:03:56;5.28;;;2.33;;
73382;SDS011;61600;48.126;11.542;2023-02-28T02:06:24;3.88;;;2.00;;
73382;SDS011;61600;48.126;11.542;2023-02-28T02:08:53;4.82;;;2.35;;
73382;SDS011;61600;48.126;11.542;2023-02-28T02:11:20;4.45;;;2.28;;
73382;SDS011;61600;48.126;11.542;2023-02-28T02:19:02;4.93;;;2.50;;
73382;SDS011;61600;48.126;11.542;2023-02-28T02:21:57;4.88;;;2.30;;
73382;SDS011;61600;48.126;11.542;2023-02-28T02:30:04;6.10;;;2.88;;
73382;SDS011;61600;48.126;11.542;2023-02-28T02:32:53;5.30;;;2.45;;
73382;SDS011;61600;48.126;11.542;2023-02-28T02:38:53;6.25;;;2.58;;
73382;SDS011;61600;48.126;11.542;2023-02-28T02:41:28;5.80;;;2.13;;
73382;SDS011;61600;48.126;11.542;2023-02-28T02:46:50;5.00;;;2.67;;
73382;SDS011;61600;48.126;11.542;2023-02-28T02:49:28;4.57;;;2.40;;
73382;SDS011;61600;48.126;11.542;2023-02-28T02:51:57;5.85;;;2.08;;
73382;SDS011;61600;48.126;11.542;2023-02-28T02:54:30;6.10;;;2.55;;
73382;SDS011;61600;48.126;11.542;2023-02-28T02:57:13;7.10;;;2.40;;
73382;SDS011;61600;48.126;11.542;2023-02-28T02:59:45;9.82;;;2.67;;
73382;SDS011;61600;48.126;11.542;2023-02-28T03:02:12;6.65;;;2.58;;
73382;SDS011;61600;48.126;11.542;2023-02-28T03:04:45;4.35;;;2.40;;
73382;SDS011;61600;48.126;11.542;2023-02-28T03:07:15;5.57;;;2.45;;
73382;SDS011;61600;48.126;11.542;2023-02-28T03:09:49;5.80;;;2.97;;
73382;SDS011;61600;48.126;11.542;2023-02-28T03:12:18;4.35;;;2.15;;
73382;SDS011;61600;48.126;11.542;2023-02-28T03:14:56;8.40;;;2.97;;
73382;SDS011;61600;48.126;11.542;2023-02-28T03:17:42;7.18;;;2.42;;
73382;SDS011;61600;48.126;11.542;2023-02-28T03:20:35;6.45;;;2.63;;
73382;SDS011;61600;48.126;11.542;2023-02-28T03:23:16;5.18;;;2.38;;
73382;SDS011;61600;48.126;11.542;2023-02-28T03:31:21;8.27;;;2.63;;
73382;SDS011;61600;48.126;11.542;2023-02-28T03:36:24;6.00;;;2.28;;
73382;SDS011;61600;48.126;11.542;2023-02-28T03:38:55;5.53;;;3.05;;
73382;SDS011;61600;48.126;11.542;2023-02-28T03:41:32;7.35;;;3.15;;
73382;SDS011;61600;48.126;11.542;2023-02-28T03:44:06;7.10;;;2.90;;
73382;SDS011;61600;48.126;11.542;2023-02-28T03:46:41;6.68;;;2.67;;
73382;SDS011;61600;48.126;11.542;2023-02-28T03:49:16;5.65;;;2.47;;
73382;SDS011;61600;48.126;11.542;2023-02-28T03:51:48;9.48;;;3.08;;
73382;SDS011;61600;48.126;11.542;2023-02-28T03:54:18;9.35;;;2.92;;
73382;SDS011;61600;48.126;11.542;2023-02-28T03:56:51;8.23;;;2.85;;
73382;SDS011;61600;48.126;11.542;2023-02-28T03:59:26;8.57;;;3.25;;
73382;SDS011;61600;48.126;11.542;2023-02-28T04:01:59;7.10;;;3.45;;
73382;SDS011;61600;48.126;11.542;2023-02-28T04:04:25;8.88;;;3.22;;
73382;SDS011;61600;48.126;11.542;2023-02-28T04:06:52;7.85;;;3.35;;
73382;SDS011;61600;48.126;11.542;2023-02-28T04:09:27;5.65;;;2.75;;
73382;SDS011;61600;48.126;11.542;2023-02-28T04:11:53;8.20;;;3.35;;
73382;SDS011;61600;48.126;11.542;2023-02-28T04:14:40;6.85;;;3.05;;
73382;SDS011;61600;48.126;11.542;2023-02-28T04:17:07;9.07;;;3.60;;
73382;SDS011;61600;48.126;11.542;2023-02-28T04:19:33;8.23;;;3.55;;
73382;SDS011;61600;48.126;11.542;2023-02-28T04:21:58;7.95;;;3.60;;
73382;SDS011;61600;48.126;11.542;2023-02-28T04:24:27;9.20;;;3.85;;
73382;SDS011;61600;48.126;11.542;2023-02-28T04:26:54;5.55;;;3.15;;
73382;SDS011;61600;48.126;11.542;2023-02-28T04:29:22;6.75;;;3.60;;
73382;SDS011;61600;48.126;11.542;2023-02-28T04:31:50;8.77;;;3.88;;
73382;SDS011;61600;48.126;11.542;2023-02-28T04:34:18;9.50;;;3.97;;
73382;SDS011;61600;48.126;11.542;2023-02-28T04:36:45;8.02;;;3.75;;
73382;SDS011;61600;48.126;11.542;2023-02-28T04:39:11;9.80;;;4.13;;
73382;SDS011;61600;48.126;11.542;2023-02-28T04:41:37;8.73;;;3.70;;
73382;SDS011;61600;48.126;11.542;2023-02-28T04:44:03;9.13;;;3.53;;
73382;SDS011;61600;48.126;11.542;2023-02-28T04:46:29;12.43;;;3.75;;
73382;SDS011;61600;48.126;11.542;2023-02-28T04:48:55;11.43;;;4.68;;
73382;SDS011;61600;48.126;11.542;2023-02-28T04:51:21;11.55;;;4.60;;
73382;SDS011;61600;48.126;11.542;2023-02-28T04:53:48;9.82;;;4.82;;
73382;SDS011;61600;48.126;11.542;2023-02-28T04:56:14;11.73;;;4.40;;
73382;SDS011;61600;48.126;11.542;2023-02-28T04:59:02;6.72;;;3.63;;
73382;SDS011;61600;48.126;11.542;2023-02-28T05:01:28;9.50;;;4.28;;
73382;SDS011;61600;48.126;11.542;2023-02-28T05:03:57;12.93;;;4.93;;
73382;SDS011;61600;48.126;11.542;2023-02-28T05:06:24;8.45;;;4.47;;
73382;SDS011;61600;48.126;11.542;2023-02-28T05:08:52;9.82;;;4.15;;
73382;SDS011;61600;48.126;11.542;2023-02-28T05:14:02;8.90;;;4.32;;
73382;SDS011;61600;48.126;11.542;2023-02-28T05:18:54;8.48;;;3.78;;
73382;SDS011;61600;48.126;11.542;2023-02-28T05:21:33;10.45;;;4.28;;
73382;SDS011;61600;48.126;11.542;2023-02-28T05:24:02;10.90;;;4.95;;
73382;SDS011;61600;48.126;11.542;2023-02-28T05:26:29;10.40;;;5.05;;
73382;SDS011;61600;48.126;11.542;2023-02-28T05:28:56;10.27;;;4.88;;
73382;SDS011;61600;48.126;11.542;2023-02-28T05:31:22;11.55;;;4.78;;
73382;SDS011;61600;48.126;11.542;2023-02-28T05:33:48;11.40;;;5.13;;
73382;SDS011;61600;48.126;11.542;2023-02-28T05:36:14;14.90;;;5.50;;
73382;SDS011;61600;48.126;11.542;2023-02-28T05:38:40;12.88;;;4.57;;
73382;SDS011;61600;48.126;11.542;2023-02-28T05:41:07;16.13;;;5.13;;
73382;SDS011;61600;48.126;11.542;2023-02-28T05:43:35;13.75;;;5.97;;
73382;SDS011;61600;48.126;11.542;2023-02-28T05:46:05;10.93;;;4.75;;
73382;SDS011;61600;48.126;11.542;2023-02-28T05:48:35;13.68;;;6.03;;
73382;SDS011;61600;48.126;11.542;2023-02-28T05:51:02;16.58;;;6.07;;
73382;SDS011;61600;48.126;11.542;2023-02-28T05:53:29;12.82;;;6.15;;
73382;SDS011;61600;48.126;11.542;2023-02-28T05:55:56;12.88;;;5.60;;
73382;SDS011;61600;48.126;11.542;2023-02-28T05:58:22;14.02;;;5.78;;
73382;SDS011;61600;48.126;11.542;2023-02-28T06:00:48;12.23;;;5.78;;
73382;SDS011;61600;48.126;11.542;2023-02-28T06:03:14;13.68;;;6.20;;
73382;SDS011;61600;48.126;11.542;2023-02-28T06:05:40;15.07;;;5.88;;
73382;SDS011;61600;48.126;11.542;2023-02-28T06:08:06;13.38;;;6.15;;
73382;SDS011;61600;48.126;11.542;2023-02-28T06:10:35;14.05;;;6.45;;
73382;SDS011;61600;48.126;11.542;2023-02-28T06:13:01;16.52;;;7.07;;
73382;SDS011;61600;48.126;11.542;2023-02-28T06:15:28;11.82;;;5.93;;
73382;SDS011;61600;48.126;11.542;2023-02-28T06:17:55;12.77;;;6.10;;
73382;SDS011;61600;48.126;11.542;2023-02-28T06:20:24;15.20;;;6.55;;
73382;SDS011;61600;48.126;11.542;2023-02-28T06:22:55;13.40;;;6.20;;
73382;SDS011;61600;48.126;11.542;2023-02-28T06:25:24;14.10;;;6.13;;
73382;SDS011;61600;48.126;11.542;2023-02-28T06:27:51;13.02;;;5.97;;
73382;SDS011;61600;48.126;11.542;2023-02-28T06:30:17;16.23;;;7.15;;
73382;SDS011;61600;48.126;11.542;2023-02-28T06:32:43;16.65;;;6.40;;
73382;SDS011;61600;48.126;11.542;2023-02-28T06:35:09;16.15;;;6.55;;
73382;SDS011;61600;48.126;11.542;2023-02-28T06:37:35;17.17;;;7.63;;
73382;SDS011;61600;48.126;11.542;2023-02-28T06:40:01;14.23;;;7.30;;
73382;SDS011;61600;48.126;11.542;2023-02-28T06:42:28;17.83;;;7.57;;
73382;SDS011;61600;48.126;11.542;2023-02-28T06:44:56;17.83;;;6.88;;
73382;SDS011;61600;48.126;11.542;2023-02-28T06:47:22;18.35;;;7.28;;
73382;SDS011;61600;48.126;11.542;2023-02-28T06:49:48;16.33;;;7.10;;
73382;SDS011;61600;48.126;11.542;2023-02-28T06:52:15;16.73;;;7.30;;
73382;SDS011;61600;48.126;11.542;2023-02-28T06:54:41;16.15;;;7.65;;
73382;SDS011;61600;48.126;11.542;2023-02-28T06:57:07;13.82;;;6.35;;
73382;SDS011;61600;48.126;11.542;2023-02-28T06:59:33;21.55;;;7.65;;
73382;SDS011;61600;48.126;11.542;2023-02-28T07:02:00;31.73;;;7.63;;
73382;SDS011;61600;48.126;11.542;2023-02-28T07:04:27;17.63;;;7.25;;
73382;SDS011;61600;48.126;11.542;2023-02-28T07:06:54;15.75;;;7.50;;
73382;SDS011;61600;48.126;11.542;2023-02-28T07:09:22;15.05;;;7.85;;
73382;SDS011;61600;48.126;11.542;2023-02-28T07:11:48;20.38;;;7.25;;
73382;SDS011;61600;48.126;11.542;2023-02-28T07:14:14;15.80;;;7.07;;
73382;SDS011;61600;48.126;11.542;2023-02-28T07:16:40;17.88;;;7.38;;
73382;SDS011;61600;48.126;11.542;2023-02-28T07:19:06;15.85;;;6.93;;
73382;SDS011;61600;48.126;11.542;2023-02-28T07:21:32;15.27;;;7.13;;
73382;SDS011;61600;48.126;11.542;2023-02-28T07:23:57;19.17;;;7.57;;
73382;SDS011;61600;48.126;11.542;2023-02-28T07:26:23;15.30;;;6.47;;
73382;SDS011;61600;48.126;11.542;2023-02-28T07:28:49;18.95;;;7.95;;
73382;SDS011;61600;48.126;11.542;2023-02-28T07:31:15;19.23;;;7.82;;
73382;SDS011;61600;48.126;11.542;2023-02-28T07:33:42;17.33;;;7.10;;
73382;SDS011;61600;48.126;11.542;2023-02-28T07:36:09;18.42;;;7.45;;
73382;SDS011;61600;48.126;11.542;2023-02-28T07:38:43;18.25;;;7.43;;
73382;SDS011;61600;48.126;11.542;2023-02-28T07:41:12;19.05;;;7.57;;
73382;SDS011;61600;48.126;11.542;2023-02-28T07:43:38;18.23;;;7.93;;
73382;SDS011;61600;48.126;11.542;2023-02-28T07:46:07;15.75;;;7.50;;
73382;SDS011;61600;48.126;11.542;2023-02-28T07:48:35;18.75;;;7.25;;
73382;SDS011;61600;48.126;11.542;2023-02-28T07:51:01;15.75;;;8.23;;
73382;SDS011;61600;48.126;11.542;2023-02-28T07:53:28;16.42;;;7.55;;
73382;SDS011;61600;48.126;11.542;2023-02-28T07:55:55;20.15;;;7.60;;
73382;SDS011;61600;48.126;11.542;2023-02-28T07:58:22;15.85;;;7.15;;
73382;SDS011;61600;48.126;11.542;2023-02-28T08:00:49;17.23;;;7.30;;
73382;SDS011;61600;48.126;11.542;2023-02-28T08:03:16;19.75;;;8.60;;
73382;SDS011;61600;48.126;11.542;2023-02-28T08:05:43;19.20;;;9.20;;
73382;SDS011;61600;48.126;11.542;2023-02-28T08:08:10;14.13;;;7.18;;
73382;SDS011;61600;48.126;11.542;2023-02-28T08:10:36;22.38;;;8.70;;
73382;SDS011;61600;48.126;11.542;2023-02-28T08:13:02;15.23;;;7.50;;
73382;SDS011;61600;48.126;11.542;2023-02-28T08:15:28;18.38;;;7.88;;
73382;SDS011;61600;48.126;11.542;2023-02-28T08:17:54;17.48;;;7.70;;
73382;SDS011;61600;48.126;11.542;2023-02-28T08:20:22;15.70;;;7.75;;
73382;SDS011;61600;48.126;11.542;2023-02-28T08:22:48;21.00;;;8.25;;
73382;SDS011;61600;48.126;11.542;2023-02-28T08:25:14;20.40;;;7.50;;
73382;SDS011;61600;48.126;11.542;2023-02-28T08:27:40;17.23;;;8.27;;
73382;SDS011;61600;48.126;11.542;2023-02-28T08:30:06;17.60;;;7.60;;
73382;SDS011;61600;48.126;11.542;2023-02-28T08:32:33;17.98;;;8.27;;
73382;SDS011;61600;48.126;11.542;2023-02-28T08:34:59;17.73;;;7.90;;
73382;SDS011;61600;48.126;11.542;2023-02-28T08:37:25;20.83;;;8.45;;
73382;SDS011;61600;48.126;11.542;2023-02-28T08:39:51;16.42;;;7.72;;
73382;SDS011;61600;48.126;11.542;2023-02-28T08:42:18;17.77;;;8.02;;
73382;SDS011;61600;48.126;11.542;2023-02-28T08:44:43;22.30;;;8.90;;
73382;SDS011;61600;48.126;11.542;2023-02-28T08:47:09;15.07;;;7.75;;
73382;SDS011;61600;48.126;11.542;2023-02-28T08:49:36;18.83;;;7.68;;
73382;SDS011;61600;48.126;11.542;2023-02-28T08:52:03;16.13;;;8.05;;
73382;SDS011;61600;48.126;11.542;2023-02-28T08:54:28;12.32;;;6.90;;
73382;SDS011;61600;48.126;11.542;2023-02-28T08:59:22;19.75;;;7.82;;
73382;SDS011;61600;48.126;11.542;2023-02-28T09:01:48;14.65;;;6.88;;
73382;SDS011;61600;48.126;11.542;2023-02-28T09:04:14;19.58;;;7.55;;
73382;SDS011;61600;48.126;11.542;2023-02-28T09:06:41;16.80;;;8.02;;
73382;SDS011;61600;48.126;11.542;2023-02-28T09:09:07;22.10;;;8.50;;
73382;SDS011;61600;48.126;11.542;2023-02-28T09:11:34;14.68;;;7.95;;
73382;SDS011;61600;48.126;11.542;2023-02-28T09:14:00;18.67;;;8.85;;
73382;SDS011;61600;48.126;11.542;2023-02-28T09:16:28;15.50;;;8.13;;
73382;SDS011;61600;48.126;11.542;2023-02-28T09:18:56;15.35;;;8.10;;
73382;SDS011;61600;48.126;11.542;2023-02-28T09:21:21;18.48;;;7.65;;
73382;SDS011;61600;48.126;11.542;2023-02-28T09:23:48;19.25;;;8.75;;
73382;SDS011;61600;48.126;11.542;2023-02-28T09:26:18;17.48;;;8.65;;
73382;SDS011;61600;48.126;11.542;2023-02-28T09:28:48;19.90;;;8.38;;
73382;SDS011;61600;48.126;11.542;2023-02-28T09:31:15;15.93;;;7.75;;
73382;SDS011;61600;48.126;11.542;2023-02-28T09:33:51;17.85;;;8.07;;
73382;SDS011;61600;48.126;11.542;2023-02-28T09:36:18;17.73;;;8.45;;
73382;SDS011;61600;48.126;11.542;2023-02-28T09:38:44;15.32;;;7.55;;
73382;SDS011;61600;48.126;11.542;2023-02-28T09:41:19;16.75;;;8.45;;
73382;SDS011;61600;48.126;11.542;2023-02-28T09:43:49;16.85;;;7.82;;
73382;SDS011;61600;48.126;11.542;2023-02-28T09:46:26;17.02;;;7.68;;
73382;SDS011;61600;48.126;11.542;2023-02-28T09:48:56;17.50;;;8.38;;
73382;SDS011;61600;48.126;11.542;2023-02-28T09:53:57;15.15;;;8.38;;
73382;SDS011;61600;48.126;11.542;2023-02-28T09:56:35;18.60;;;8.82;;
73382;SDS011;61600;48.126;11.542;2023-02-28T09:59:06;19.17;;;8.20;;
73382;SDS011;61600;48.126;11.542;2023-02-28T10:09:52;16.02;;;8.50;;
73382;SDS011;61600;48.126;11.542;2023-02-28T10:12:20;18.13;;;8.77;;
73382;SDS011;61600;48.126;11.542;2023-02-28T10:14:47;15.90;;;8.10;;
73382;SDS011;61600;48.126;11.542;2023-02-28T10:17:21;23.30;;;8.95;;
73382;SDS011;61600;48.126;11.542;2023-02-28T10:20:14;18.15;;;8.90;;
73382;SDS011;61600;48.126;11.542;2023-02-28T10:25:26;18.70;;;8.30;;
73382;SDS011;61600;48.126;11.542;2023-02-28T10:27:55;16.20;;;7.65;;
73382;SDS011;61600;48.126;11.542;2023-02-28T10:30:31;20.35;;;8.55;;
73382;SDS011;61600;48.126;11.542;2023-02-28T10:32:57;16.10;;;8.30;;
73382;SDS011;61600;48.126;11.542;2023-02-28T10:35:23;17.38;;;8.75;;
73382;SDS011;61600;48.126;11.542;2023-02-28T10:37:53;15.93;;;7.93;;
73382;SDS011;61600;48.126;11.542;2023-02-28T10:42:56;15.90;;;8.82;;
73382;SDS011;61600;48.126;11.542;2023-02-28T10:45:25;17.80;;;8.40;;
73382;SDS011;61600;48.126;11.542;2023-02-28T10:47:57;16.38;;;8.50;;
73382;SDS011;61600;48.126;11.542;2023-02-28T10:58:26;19.08;;;7.97;;
73382;SDS011;61600;48.126;11.542;2023-02-28T11:00:53;18.48;;;8.52;;
73382;SDS011;61600;48.126;11.542;2023-02-28T11:03:23;16.67;;;8.68;;
73382;SDS011;61600;48.126;11.542;2023-02-28T11:06:04;20.38;;;8.30;;
73382;SDS011;61600;48.126;11.542;2023-02-28T11:08:49;19.13;;;8.40;;
73382;SDS011;61600;48.126;11.542;2023-02-28T11:11:17;18.20;;;7.38;;
73382;SDS011;61600;48.126;11.542;2023-02-28T11:13:45;18.02;;;8.23;;
73382;SDS011;61600;48.126;11.542;2023-02-28T11:16:15;19.38;;;8.32;;
73382;SDS011;61600;48.126;11.542;2023-02-28T11:18:49;19.35;;;8.80;;
73382;SDS011;61600;48.126;11.542;2023-02-28T11:23:52;16.60;;;8.55;;
73382;SDS011;61600;48.126;11.542;2023-02-28T11:26:37;18.60;;;8.73;;
73382;SDS011;61600;48.126;11.542;2023-02-28T11:31:36;21.00;;;10.00;;
73382;SDS011;61600;48.126;11.542;2023-02-28T11:34:07;17.52;;;8.18;;
73382;SDS011;61600;48.126;11.542;2023-02-28T11:36:49;14.85;;;8.48;;
73382;SDS011;61600;48.126;11.542;2023-02-28T11:39:14;15.32;;;8.07;;
73382;SDS011;61600;48.126;11.542;2023-02-28T11:44:40;17.08;;;8.45;;
73382;SDS011;61600;48.126;11.542;2023-02-28T11:50:11;17.58;;;8.18;;
73382;SDS011;61600;48.126;11.542;2023-02-28T11:52:52;18.73;;;8.00;;
73382;SDS011;61600;48.126;11.542;2023-02-28T11:55:31;19.35;;;8.70;;
73382;SDS011;61600;48.126;11.542;2023-02-28T12:08:58;16.20;;;8.27;;
73382;SDS011;61600;48.126;11.542;2023-02-28T12:16:28;15.27;;;7.53;;
73382;SDS011;61600;48.126;11.542;2023-02-28T12:19:09;16.20;;;8.88;;
73382;SDS011;61600;48.126;11.542;2023-02-28T12:27:15;17.65;;;8.55;;
73382;SDS011;61600;48.126;11.542;2023-02-28T12:29:52;17.40;;;8.00;;
73382;SDS011;61600;48.126;11.542;2023-02-28T12:35:25;13.57;;;7.47;;
73382;SDS011;61600;48.126;11.542;2023-02-28T12:38:05;19.35;;;7.30;;
73382;SDS011;61600;48.126;11.542;2023-02-28T12:40:52;18.13;;;8.50;;
73382;SDS011;61600;48.126;11.542;2023-02-28T12:43:28;18.85;;;7.85;;
73382;SDS011;61600;48.126;11.542;2023-02-28T12:46:14;13.23;;;7.35;;
73382;SDS011;61600;48.126;11.542;2023-02-28T12:48:53;15.75;;;7.20;;
73382;SDS011;61600;48.126;11.542;2023-02-28T12:51:22;13.50;;;7.75;;
73382;SDS011;61600;48.126;11.542;2023-02-28T13:02:30;15.45;;;7.35;;
73382;SDS011;61600;48.126;11.542;2023-02-28T13:05:07;14.77;;;7.55;;
73382;SDS011;61600;48.126;11.542;2023-02-28T13:08:06;12.65;;;7.13;;
73382;SDS011;61600;48.126;11.542;2023-02-28T13:11:24;16.40;;;7.55;;
73382;SDS011;61600;48.126;11.542;2023-02-28T13:14:00;14.38;;;7.45;;
73382;SDS011;61600;48.126;11.542;2023-02-28T13:16:28;12.48;;;7.13;;
73382;SDS011;61600;48.126;11.542;2023-02-28T13:22:04;13.05;;;6.20;;
73382;SDS011;61600;48.126;11.542;2023-02-28T13:24:43;11.27;;;6.38;;
73382;SDS011;61600;48.126;11.542;2023-02-28T13:29:51;13.88;;;7.10;;
73382;SDS011;61600;48.126;11.542;2023-02-28T13:39:54;15.70;;;8.05;;
73382;SDS011;61600;48.126;11.542;2023-02-28T13:45:19;18.70;;;6.90;;
73382;SDS011;61600;48.126;11.542;2023-02-28T13:48:00;12.88;;;7.18;;
73382;SDS011;61600;48.126;11.542;2023-02-28T13:50:40;16.77;;;7.78;;
73382;SDS011;61600;48.126;11.542;2023-02-28T13:58:52;14.27;;;8.45;;
73382;SDS011;61600;48.126;11.542;2023-02-28T14:01:23;16.50;;;7.30;;
73382;SDS011;61600;48.126;11.542;2023-02-28T14:06:51;14.38;;;7.28;;
73382;SDS011;61600;48.126;11.542;2023-02-28T14:11:54;15.30;;;7.53;;
73382;SDS011;61600;48.126;11.542;2023-02-28T14:17:05;16.45;;;7.80;;
73382;SDS011;61600;48.126;11.542;2023-02-28T14:19:34;16.40;;;7.57;;
73382;SDS011;61600;48.126;11.542;2023-02-28T14:27:47;13.35;;;6.85;;
73382;SDS011;61600;48.126;11.542;2023-02-28T14:39:19;16.20;;;7.03;;
73382;SDS011;61600;48.126;11.542;2023-02-28T14:41:47;12.43;;;7.13;;
73382;SDS011;61600;48.126;11.542;2023-02-28T14:46:43;13.88;;;7.20;;
73382;SDS011;61600;48.126;11.542;2023-02-28T14:49:17;12.80;;;6.47;;
73382;SDS011;61600;48.126;11.542;2023-02-28T14:51:50;15.98;;;7.55;;
73382;SDS011;61600;48.126;11.542;2023-02-28T14:54:28;13.93;;;6.68;;
73382;SDS011;61600;48.126;11.542;2023-02-28T14:57:04;13.20;;;6.60;;
73382;SDS011;61600;48.126;11.542;2023-02-28T14:59:34;19.25;;;7.30;;
73382;SDS011;61600;48.126;11.542;2023-02-28T15:02:17;14.00;;;7.13;;
73382;SDS011;61600;48.126;11.542;2023-02-28T15:04:51;11.25;;;6.82;;
73382;SDS011;61600;48.126;11.542;2023-02-28T15:07:25;14.10;;;6.30;;
73382;SDS011;61600;48.126;11.542;2023-02-28T15:10:08;13.68;;;6.70;;
73382;SDS011;61600;48.126;11.542;2023-02-28T15:13:00;12.95;;;6.43;;
73382;SDS011;61600;48.126;11.542;2023-02-28T15:18:05;11.65;;;6.45;;
73382;SDS011;61600;48.126;11.542;2023-02-28T15:20:33;13.38;;;7.00;;
73382;SDS011;61600;48.126;11.542;2023-02-28T15:23:09;14.40;;;7.40;;
73382;SDS011;61600;48.126;11.542;2023-02-28T15:25:36;16.80;;;7.20;;
73382;SDS011;61600;48.126;11.542;2023-02-28T15:28:02;16.92;;;7.93;;
73382;SDS011;61600;48.126;11.542;2023-02-28T15:30:29;14.45;;;6.68;;
73382;SDS011;61600;48.126;11.542;2023-02-28T15:33:03;17.02;;;6.82;;
73382;SDS011;61600;48.126;11.542;2023-02-28T15:35:33;14.25;;;6.78;;
73382;SDS011;61600;48.126;11.542;2023-02-28T15:38:01;12.43;;;6.70;;
73382;SDS011;61600;48.126;11.542;2023-02-28T15:40:46;14.40;;;7.28;;
73382;SDS011;61600;48.126;11.542;2023-02-28T15:43:30;14.88;;;7.40;;
73382;SDS011;61600;48.126;11.542;2023-02-28T15:46:02;13.70;;;6.82;;
73382;SDS011;61600;48.126;11.542;2023-02-28T15:51:19;15.85;;;7.72;;
73382;SDS011;61600;48.126;11.542;2023-02-28T15:56:23;15.40;;;7.68;;
73382;SDS011;61600;48.126;11.542;2023-02-28T15:58:53;14.25;;;6.95;;
73382;SDS011;61600;48.126;11.542;2023-02-28T16:01:24;12.70;;;6.60;;
73382;SDS011;61600;48.126;11.542;2023-02-28T16:03:55;13.68;;;6.50;;
73382;SDS011;61600;48.126;11.542;2023-02-28T16:06:28;14.50;;;7.10;;
73382;SDS011;61600;48.126;11.542;2023-02-28T16:08:58;12.88;;;6.97;;
73382;SDS011;61600;48.126;11.542;2023-02-28T16:11:24;20.55;;;7.57;;
73382;SDS011;61600;48.126;11.542;2023-02-28T16:13:51;14.95;;;7.22;;
73382;SDS011;61600;48.126;11.542;2023-02-28T16:16:19;22.90;;;7.40;;
73382;SDS011;61600;48.126;11.542;2023-02-28T16:18:47;14.75;;;7.13;;
73382;SDS011;61600;48.126;11.542;2023-02-28T16:21:13;17.65;;;6.82;;
73382;SDS011;61600;48.126;11.542;2023-02-28T16:23:39;13.93;;;7.28;;
73382;SDS011;61600;48.126;11.542;2023-02-28T16:26:05;14.00;;;7.10;;
73382;SDS011;61600;48.126;11.542;2023-02-28T16:28:33;16.73;;;6.97;;
73382;SDS011;61600;48.126;11.542;2023-02-28T16:31:03;12.52;;;6.78;;
73382;SDS011;61600;48.126;11.542;2023-02-28T16:33:32;13.55;;;7.25;;
73382;SDS011;61600;48.126;11.542;2023-02-28T16:35:59;16.05;;;6.75;;
73382;SDS011;61600;48.126;11.542;2023-02-28T16:38:25;14.38;;;6.50;;
73382;SDS011;61600;48.126;11.542;2023-02-28T16:40:51;16.13;;;7.60;;
73382;SDS011;61600;48.126;11.542;2023-02-28T16:43:22;13.55;;;7.03;;
73382;SDS011;61600;48.126;11.542;2023-02-28T16:45:56;18.75;;;7.22;;
73382;SDS011;61600;48.126;11.542;2023-02-28T16:48:26;15.70;;;7.85;;
73382;SDS011;61600;48.126;11.542;2023-02-28T16:50:52;13.05;;;7.47;;
73382;SDS011;61600;48.126;11.542;2023-02-28T16:53:18;18.23;;;7.35;;
73382;SDS011;61600;48.126;11.542;2023-02-28T16:55:44;14.15;;;6.82;;
73382;SDS011;61600;48.126;11.542;2023-02-28T16:58:13;19.67;;;7.57;;
73382;SDS011;61600;48.126;11.542;2023-02-28T17:00:40;15.50;;;7.10;;
73382;SDS011;61600;48.126;11.542;2023-02-28T17:03:40;15.15;;;7.18;;
73382;SDS011;61600;48.126;11.542;2023-02-28T17:05:59;12.77;;;6.75;;
73382;SDS011;61600;48.126;11.542;2023-02-28T17:08:25;15.48;;;6.70;;
73382;SDS011;61600;48.126;11.542;2023-02-28T17:10:52;13.65;;;6.95;;
73382;SDS011;61600;48.126;11.542;2023-02-28T17:13:17;17.27;;;7.53;;
73382;SDS011;61600;48.126;11.542;2023-02-28T17:15:43;15.77;;;7.10;;
73382;SDS011;61600;48.126;11.542;2023-02-28T17:18:13;14.10;;;6.40;;
73382;SDS011;61600;48.126;11.542;2023-02-28T17:20:41;21.77;;;7.50;;